createdAt,value
2022-11-28T00:00:17.244Z,6.72
2022-11-28T00:03:18.799Z,5.68
2022-11-28T00:06:20.808Z,6.07
2022-11-28T00:09:22.398Z,5.60
2022-11-28T00:12:24.139Z,5.70
2022-11-28T00:15:25.538Z,5.63
2022-11-28T00:18:28.045Z,5.07
2022-11-28T00:21:30.074Z,6.13
2022-11-28T00:24:31.538Z,5.53
2022-11-28T00:27:34.798Z,5.90
2022-11-28T00:30:37.790Z,5.97
2022-11-28T00:33:39.238Z,5.57
2022-11-28T00:36:43.682Z,5.50
2022-11-28T00:39:45.063Z,5.63
2022-11-28T00:42:46.581Z,5.85
2022-11-28T00:45:48.010Z,6.30
2022-11-28T00:48:49.968Z,5.20
2022-11-28T00:51:51.467Z,5.85
2022-11-28T00:54:52.944Z,5.70
2022-11-28T00:57:55.191Z,5.30
2022-11-28T01:00:56.601Z,5.38
2022-11-28T01:03:59.845Z,5.10
2022-11-28T01:07:02.308Z,5.10
2022-11-28T01:10:04.360Z,5.00
2022-11-28T01:13:05.885Z,5.93
2022-11-28T01:16:09.011Z,5.57
2022-11-28T01:19:10.755Z,5.45
2022-11-28T01:22:12.287Z,5.93
2022-11-28T01:25:13.695Z,6.10
2022-11-28T01:28:15.134Z,5.45
2022-11-28T01:31:19.256Z,5.82
2022-11-28T01:34:20.734Z,5.68
2022-11-28T01:37:22.148Z,5.00
2022-11-28T01:40:23.605Z,5.60
2022-11-28T01:43:25.431Z,5.60
2022-11-28T01:46:27.297Z,5.28
2022-11-28T01:49:34.481Z,4.90
2022-11-28T01:52:40.182Z,4.93
2022-11-28T01:56:11.407Z,5.20
2022-11-28T01:59:15.523Z,5.10
2022-11-28T02:02:26.818Z,5.25
2022-11-28T02:05:28.463Z,5.40
2022-11-28T02:08:34.128Z,5.07
2022-11-28T02:11:58.259Z,4.70
2022-11-28T02:15:11.704Z,4.60
2022-11-28T02:18:35.147Z,4.47
2022-11-28T02:22:07.384Z,4.70
2022-11-28T02:25:33.935Z,4.68
2022-11-28T02:29:07.658Z,4.65
2022-11-28T02:32:27.967Z,5.10
2022-11-28T02:35:34.848Z,4.88
2022-11-28T02:38:58.614Z,4.57
2022-11-28T02:42:13.580Z,5.00
2022-11-28T02:45:53.092Z,4.43
2022-11-28T02:49:11.611Z,4.78
2022-11-28T02:52:17.818Z,4.75
2022-11-28T02:55:20.175Z,4.57
2022-11-28T03:01:29.326Z,5.10
2022-11-28T03:04:55.923Z,5.10
2022-11-28T03:08:09.678Z,5.13
2022-11-28T03:11:25.383Z,4.82
2022-11-28T03:14:38.770Z,4.95
2022-11-28T03:17:46.279Z,5.22
2022-11-28T03:20:55.205Z,5.13
2022-11-28T03:24:06.263Z,4.95
2022-11-28T03:27:16.571Z,4.63
2022-11-28T03:30:27.337Z,4.80
2022-11-28T03:33:34.238Z,4.47
2022-11-28T03:36:42.592Z,4.70
2022-11-28T03:39:48.954Z,4.60
2022-11-28T03:43:13.790Z,4.65
2022-11-28T03:46:18.150Z,4.60
2022-11-28T03:49:25.159Z,4.45
2022-11-28T03:52:35.593Z,4.22
2022-11-28T03:55:46.689Z,4.38
2022-11-28T03:59:04.434Z,4.40
2022-11-28T04:02:11.528Z,4.18
2022-11-28T04:05:21.075Z,4.50
2022-11-28T04:08:48.445Z,4.55
2022-11-28T04:11:56.457Z,4.20
2022-11-28T04:15:06.197Z,4.28
2022-11-28T04:18:21.846Z,4.18
2022-11-28T04:21:34.215Z,4.80
2022-11-28T04:24:45.487Z,5.07
2022-11-28T04:27:54.059Z,5.25
2022-11-28T04:31:00.052Z,5.03
2022-11-28T04:34:06.867Z,5.15
2022-11-28T04:37:10.126Z,4.90
2022-11-28T04:40:12.965Z,5.32
2022-11-28T04:43:21.003Z,4.70
2022-11-28T04:46:27.078Z,5.25
2022-11-28T04:49:30.459Z,4.82
2022-11-28T04:52:56.505Z,4.95
2022-11-28T04:56:05.103Z,4.88
2022-11-28T04:59:08.073Z,4.80
2022-11-28T05:02:12.104Z,5.00
2022-11-28T05:05:19.968Z,4.78
2022-11-28T05:08:21.387Z,5.57
2022-11-28T05:11:23.283Z,5.13
2022-11-28T05:14:24.711Z,4.78
2022-11-28T05:17:26.119Z,4.57
2022-11-28T05:20:27.664Z,4.90
2022-11-28T05:23:29.249Z,4.67
2022-11-28T05:26:32.533Z,4.70
2022-11-28T05:29:34.245Z,6.70
2022-11-28T05:32:36.480Z,6.80
2022-11-28T05:35:39.819Z,5.20
2022-11-28T05:38:42.221Z,4.50
2022-11-28T05:44:45.426Z,4.05
2022-11-28T05:47:46.840Z,4.32
2022-11-28T05:50:50.659Z,4.70
2022-11-28T05:53:52.075Z,4.88
2022-11-28T05:56:53.487Z,5.43
2022-11-28T05:59:54.875Z,4.63
2022-11-28T06:03:01.200Z,5.05
2022-11-28T06:06:03.234Z,5.47
2022-11-28T06:09:05.994Z,4.90
2022-11-28T06:12:08.353Z,5.10
2022-11-28T06:18:11.388Z,4.80
2022-11-28T06:21:14.595Z,4.87
2022-11-28T06:24:16.004Z,5.00
2022-11-28T06:27:17.392Z,4.90
2022-11-28T06:30:18.838Z,4.47
2022-11-28T06:33:20.417Z,5.30
2022-11-28T06:36:21.924Z,4.47
2022-11-28T06:39:23.355Z,4.90
2022-11-28T06:42:24.737Z,4.75
2022-11-28T06:45:26.218Z,5.28
2022-11-28T06:48:27.815Z,4.80
2022-11-28T06:51:29.306Z,4.60
2022-11-28T06:54:30.870Z,4.70
2022-11-28T06:57:32.791Z,4.37
2022-11-28T07:00:35.300Z,4.82
2022-11-28T07:03:37.652Z,4.57
2022-11-28T07:09:40.607Z,4.50
2022-11-28T07:12:42.198Z,4.93
2022-11-28T07:15:50.839Z,4.80
2022-11-28T07:18:53.079Z,4.80
2022-11-28T07:21:54.689Z,4.45
2022-11-28T07:24:56.237Z,4.80
2022-11-28T07:27:57.669Z,5.20
2022-11-28T07:31:00.430Z,4.95
2022-11-28T07:34:03.628Z,5.63
2022-11-28T07:37:05.252Z,5.15
2022-11-28T07:40:07.283Z,4.70
2022-11-28T07:43:08.771Z,5.53
2022-11-28T07:46:13.549Z,10.90
2022-11-28T07:49:15.739Z,9.77
2022-11-28T07:52:17.176Z,7.57
2022-11-28T07:55:18.625Z,7.78
2022-11-28T07:58:22.076Z,6.63
2022-11-28T08:01:26.660Z,6.22
2022-11-28T08:04:28.100Z,10.15
2022-11-28T08:07:29.683Z,13.83
2022-11-28T08:10:31.128Z,21.40
2022-11-28T08:13:32.926Z,18.88
2022-11-28T08:16:34.693Z,12.75
2022-11-28T08:19:36.176Z,8.40
2022-11-28T08:22:37.612Z,7.95
2022-11-28T08:25:39.023Z,6.50
2022-11-28T08:28:40.996Z,7.70
2022-11-28T08:31:42.505Z,7.03
2022-11-28T08:34:44.104Z,6.13
2022-11-28T08:37:45.665Z,6.05
2022-11-28T08:40:47.089Z,5.93
2022-11-28T08:43:49.051Z,6.13
2022-11-28T08:46:50.536Z,6.07
2022-11-28T08:49:52.250Z,5.70
2022-11-28T08:52:53.742Z,5.78
2022-11-28T08:55:55.447Z,5.93
2022-11-28T08:58:56.912Z,5.35
2022-11-28T09:01:58.323Z,5.60
2022-11-28T09:04:59.736Z,5.72
2022-11-28T09:08:01.298Z,5.85
2022-11-28T09:11:02.793Z,5.60
2022-11-28T09:14:04.548Z,5.93
2022-11-28T09:17:06.035Z,5.95
2022-11-28T09:20:08.185Z,6.73
2022-11-28T09:23:10.400Z,6.10
2022-11-28T09:26:14.688Z,6.75
2022-11-28T09:29:16.096Z,6.88
2022-11-28T09:32:17.676Z,6.27
2022-11-28T09:35:19.121Z,6.17
2022-11-28T09:38:21.361Z,6.63
2022-11-28T09:41:28.723Z,6.68
2022-11-28T09:44:33.084Z,6.60
2022-11-28T09:47:36.809Z,7.68
2022-11-28T09:50:41.211Z,7.45
2022-11-28T09:54:03.660Z,6.80
2022-11-28T09:57:26.251Z,6.45
2022-11-28T10:00:43.896Z,6.43
2022-11-28T10:03:48.231Z,7.30
2022-11-28T10:07:05.216Z,7.30
2022-11-28T10:10:30.672Z,7.20
2022-11-28T10:14:07.725Z,7.80
2022-11-28T10:17:29.291Z,7.05
2022-11-28T10:20:34.345Z,8.23
2022-11-28T10:23:43.071Z,7.63
2022-11-28T10:26:48.786Z,7.90
2022-11-28T10:29:58.481Z,8.27
2022-11-28T10:33:08.684Z,7.78
2022-11-28T10:36:21.323Z,8.57
2022-11-28T10:39:25.815Z,8.02
2022-11-28T10:42:35.202Z,7.78
2022-11-28T10:45:56.050Z,8.35
2022-11-28T10:49:06.413Z,7.47
2022-11-28T10:52:07.983Z,7.32
2022-11-28T10:55:35.860Z,7.10
2022-11-28T10:58:48.074Z,6.68
2022-11-28T11:01:51.919Z,8.20
2022-11-28T11:04:54.004Z,5.63
2022-11-28T11:08:03.518Z,7.15
2022-11-28T11:11:23.920Z,4.28
2022-11-28T11:14:35.676Z,5.25
2022-11-28T11:17:39.688Z,5.90
2022-11-28T11:20:41.146Z,5.68
2022-11-28T11:23:44.523Z,6.27
2022-11-28T11:26:48.436Z,5.88
2022-11-28T11:29:51.864Z,5.35
2022-11-28T11:32:55.472Z,5.53
2022-11-28T11:35:56.936Z,5.15
2022-11-28T11:39:10.881Z,5.27
2022-11-28T11:42:21.446Z,4.72
2022-11-28T11:45:28.161Z,4.38
2022-11-28T11:48:41.950Z,3.72
2022-11-28T11:51:43.513Z,4.32
2022-11-28T11:55:02.588Z,3.87
2022-11-28T11:58:06.239Z,3.40
2022-11-28T12:01:10.482Z,3.80
2022-11-28T12:04:45.474Z,4.38
2022-11-28T12:07:50.602Z,3.88
2022-11-28T12:11:12.968Z,5.47
2022-11-28T12:14:27.621Z,5.30
2022-11-28T12:17:58.844Z,5.63
2022-11-28T12:21:11.742Z,6.40
2022-11-28T12:27:43.350Z,6.28
2022-11-28T12:31:08.351Z,6.00
2022-11-28T12:34:47.690Z,5.88
2022-11-28T12:38:12.774Z,5.13
2022-11-28T12:41:49.255Z,6.30
2022-11-28T12:45:17.640Z,7.07
2022-11-28T12:48:58.508Z,6.13
2022-11-28T12:52:16.634Z,5.47
2022-11-28T12:55:35.319Z,5.10
2022-11-28T12:58:45.162Z,4.47
2022-11-28T13:02:11.338Z,4.00
2022-11-28T13:05:41.395Z,4.70
2022-11-28T13:08:56.840Z,4.40
2022-11-28T13:12:24.907Z,4.90
2022-11-28T13:15:44.556Z,6.93
2022-11-28T13:19:00.492Z,6.00
2022-11-28T13:22:20.356Z,5.90
2022-11-28T13:25:31.892Z,6.85
2022-11-28T13:28:33.230Z,6.50
2022-11-28T13:31:44.291Z,6.35
2022-11-28T13:34:47.084Z,5.22
2022-11-28T13:45:33.172Z,5.15
2022-11-28T13:52:17.665Z,5.20
2022-11-28T13:55:46.568Z,5.13
2022-11-28T13:58:57.110Z,5.35
2022-11-28T14:02:02.141Z,5.38
2022-11-28T14:05:06.477Z,7.28
2022-11-28T14:08:09.035Z,6.85
2022-11-28T14:11:27.925Z,5.90
2022-11-28T14:14:29.903Z,6.90
2022-11-28T14:17:50.531Z,7.65
2022-11-28T14:21:05.453Z,7.55
2022-11-28T14:24:19.962Z,6.38
2022-11-28T14:27:29.045Z,6.93
2022-11-28T14:30:37.175Z,6.28
2022-11-28T14:33:44.498Z,5.18
2022-11-28T14:37:06.324Z,5.57
2022-11-28T14:40:46.906Z,5.03
2022-11-28T14:44:44.286Z,5.63
2022-11-28T14:48:22.129Z,5.70
2022-11-28T14:51:45.963Z,4.75
2022-11-28T14:54:53.156Z,6.78
2022-11-28T14:57:59.738Z,7.00
2022-11-28T15:01:08.185Z,5.40
2022-11-28T15:04:48.324Z,5.53
2022-11-28T15:08:04.889Z,5.30
2022-11-28T15:11:19.776Z,4.78
2022-11-28T15:14:24.373Z,5.15
2022-11-28T15:17:32.557Z,8.48
2022-11-28T15:20:45.611Z,7.30
2022-11-28T15:23:48.017Z,6.20
2022-11-28T15:26:55.824Z,6.47
2022-11-28T15:30:00.970Z,7.25
2022-11-28T15:33:03.589Z,8.13
2022-11-28T15:36:22.037Z,9.02
2022-11-28T15:39:36.676Z,9.63
2022-11-28T15:42:38.828Z,8.65
2022-11-28T15:48:52.381Z,11.23
2022-11-28T15:51:56.189Z,10.07
2022-11-28T15:54:57.944Z,9.75
2022-11-28T15:58:21.399Z,11.02
2022-11-28T16:01:28.225Z,13.40
2022-11-28T16:04:30.435Z,11.88
2022-11-28T16:07:33.096Z,9.27
2022-11-28T16:10:37.657Z,10.40
2022-11-28T16:13:40.090Z,15.75
2022-11-28T16:16:41.851Z,13.07
2022-11-28T16:19:44.278Z,12.30
2022-11-28T16:22:45.911Z,11.05
2022-11-28T16:26:00.934Z,12.73
2022-11-28T16:29:05.264Z,10.40
2022-11-28T16:32:22.970Z,10.02
2022-11-28T16:35:29.304Z,11.05
2022-11-28T16:38:33.030Z,11.45
2022-11-28T16:41:36.114Z,11.15
2022-11-28T16:44:37.721Z,11.05
2022-11-28T16:47:39.754Z,11.60
2022-11-28T16:50:59.886Z,11.45
2022-11-28T16:54:28.803Z,13.00
2022-11-28T16:57:46.375Z,12.60
2022-11-28T17:00:59.697Z,13.68
2022-11-28T17:04:01.853Z,13.93
2022-11-28T17:07:05.575Z,15.35
2022-11-28T17:10:07.488Z,15.43
2022-11-28T17:13:10.003Z,15.57
2022-11-28T17:16:20.062Z,12.88
2022-11-28T17:19:21.535Z,11.63
2022-11-28T17:22:37.456Z,11.67
2022-11-28T17:25:42.012Z,12.55
2022-11-28T17:28:43.598Z,12.37
2022-11-28T17:31:47.105Z,11.50
2022-11-28T17:34:48.689Z,11.93
2022-11-28T17:37:50.295Z,12.73
2022-11-28T17:40:51.686Z,12.50
2022-11-28T17:43:53.145Z,10.93
2022-11-28T17:46:56.497Z,9.67
2022-11-28T17:49:58.643Z,9.60
2022-11-28T17:53:00.053Z,10.02
2022-11-28T17:56:02.778Z,9.82
2022-11-28T17:59:04.560Z,10.60
2022-11-28T18:02:06.086Z,10.13
2022-11-28T18:05:07.993Z,10.43
2022-11-28T18:08:19.160Z,11.10
2022-11-28T18:11:23.341Z,11.73
2022-11-28T18:14:24.899Z,11.00
2022-11-28T18:17:26.318Z,10.60
2022-11-28T18:20:28.624Z,11.03
2022-11-28T18:23:30.018Z,11.93
2022-11-28T18:26:31.799Z,12.85
2022-11-28T18:29:34.256Z,13.80
2022-11-28T18:35:37.695Z,17.42
2022-11-28T18:38:39.744Z,15.55
2022-11-28T18:41:42.483Z,14.25
2022-11-28T18:44:43.947Z,13.60
2022-11-28T18:47:45.487Z,11.33
2022-11-28T18:50:47.119Z,9.98
2022-11-28T18:53:50.189Z,8.37
2022-11-28T18:56:52.552Z,8.90
2022-11-28T18:59:55.522Z,8.87
2022-11-28T19:02:57.406Z,9.07
2022-11-28T19:05:59.387Z,8.70
2022-11-28T19:09:02.637Z,9.20
2022-11-28T19:12:04.668Z,9.52
2022-11-28T19:15:07.945Z,9.05
2022-11-28T19:21:18.798Z,8.40
2022-11-28T19:24:20.411Z,8.38
2022-11-28T19:27:22.480Z,8.45
2022-11-28T19:30:23.867Z,7.45
2022-11-28T19:33:25.288Z,8.88
2022-11-28T19:36:26.970Z,7.70
2022-11-28T19:39:29.201Z,7.43
2022-11-28T19:42:30.818Z,7.35
2022-11-28T19:45:32.871Z,7.93
2022-11-28T19:48:36.551Z,8.02
2022-11-28T19:51:37.991Z,8.07
2022-11-28T19:54:40.012Z,9.10
2022-11-28T19:57:42.497Z,10.18
2022-11-28T20:00:44.304Z,8.10
2022-11-28T20:03:47.735Z,7.25
2022-11-28T20:06:49.388Z,7.97
2022-11-28T20:09:50.782Z,7.30
2022-11-28T20:12:54.070Z,6.82
2022-11-28T20:15:56.042Z,7.03
2022-11-28T20:19:00.313Z,6.63
2022-11-28T20:22:02.338Z,7.40
2022-11-28T20:25:06.735Z,8.82
2022-11-28T20:28:08.410Z,7.95
2022-11-28T20:31:23.570Z,7.90
2022-11-28T20:34:25.633Z,8.00
2022-11-28T20:37:28.048Z,8.30
2022-11-28T20:43:32.560Z,7.63
2022-11-28T20:46:35.473Z,7.55
2022-11-28T20:49:37.767Z,7.05
2022-11-28T20:52:39.200Z,6.35
2022-11-28T20:55:40.736Z,6.85
2022-11-28T20:58:42.718Z,6.13
2022-11-28T21:01:44.486Z,5.75
2022-11-28T21:04:46.091Z,6.05
2022-11-28T21:07:47.549Z,6.33
2022-11-28T21:10:49.146Z,6.70
2022-11-28T21:13:50.714Z,6.43
2022-11-28T21:16:52.266Z,6.10
2022-11-28T21:19:53.801Z,7.07
2022-11-28T21:22:55.408Z,7.00
2022-11-28T21:25:56.774Z,6.37
2022-11-28T21:29:02.477Z,6.13
2022-11-28T21:32:03.912Z,6.57
2022-11-28T21:35:05.900Z,10.80
2022-11-28T21:38:08.044Z,11.88
2022-11-28T21:41:09.637Z,11.30
2022-11-28T21:44:11.096Z,12.80
2022-11-28T21:47:12.527Z,9.93
2022-11-28T21:50:14.252Z,9.83
2022-11-28T21:53:17.209Z,8.32
2022-11-28T21:56:19.070Z,7.70
2022-11-28T21:59:21.737Z,7.45
2022-11-28T22:02:30.455Z,7.80
2022-11-28T22:05:33.673Z,7.75
2022-11-28T22:08:35.772Z,7.55
2022-11-28T22:11:38.464Z,8.52
2022-11-28T22:14:39.861Z,9.60
2022-11-28T22:17:41.651Z,7.93
2022-11-28T22:20:45.798Z,7.53
2022-11-28T22:23:50.904Z,7.28
2022-11-28T22:26:53.296Z,7.78
2022-11-28T22:32:56.878Z,6.35
2022-11-28T22:36:25.110Z,6.77
2022-11-28T22:39:27.878Z,6.72
2022-11-28T22:42:29.641Z,6.25
2022-11-28T22:45:32.336Z,6.75
2022-11-28T22:48:35.104Z,6.88
2022-11-28T22:51:37.440Z,7.40
2022-11-28T22:54:38.880Z,6.80
2022-11-28T22:57:40.407Z,6.90
2022-11-28T23:00:42.759Z,6.63
2022-11-28T23:03:46.194Z,6.30
2022-11-28T23:06:47.737Z,6.00
2022-11-28T23:09:49.485Z,6.27
2022-11-28T23:12:51.152Z,5.78
2022-11-28T23:15:53.102Z,6.67
2022-11-28T23:18:57.507Z,6.78
2022-11-28T23:21:58.927Z,6.45
2022-11-28T23:25:00.525Z,6.00
2022-11-28T23:28:02.026Z,6.13
2022-11-28T23:31:08.554Z,5.97
2022-11-28T23:34:10.795Z,5.63
2022-11-28T23:37:13.981Z,5.32
2022-11-28T23:40:15.483Z,5.63
2022-11-28T23:43:16.994Z,5.37
2022-11-28T23:46:19.776Z,5.60
2022-11-28T23:49:21.234Z,5.07
2022-11-28T23:52:22.739Z,5.10
2022-11-28T23:55:24.191Z,4.83
2022-11-28T23:58:25.583Z,4.63
